createdAt,value
2022-11-06T00:02:21.191Z,100059.84
2022-11-06T00:04:48.882Z,100049.88
2022-11-06T00:07:16.323Z,100052.28
2022-11-06T00:09:43.845Z,100053.09
2022-11-06T00:12:11.334Z,100051.63
2022-11-06T00:14:38.887Z,100044.19
2022-11-06T00:17:06.402Z,100047.00
2022-11-06T00:19:33.938Z,100041.84
2022-11-06T00:22:01.410Z,100050.13
2022-11-06T00:24:28.993Z,100041.41
2022-11-06T00:26:56.516Z,100036.53
2022-11-06T00:29:24.070Z,100036.25
2022-11-06T00:31:51.632Z,100027.13
2022-11-06T00:34:19.555Z,100029.09
2022-11-06T00:36:47.189Z,100032.44
2022-11-06T00:39:14.874Z,100018.72
2022-11-06T00:41:42.389Z,100013.09
2022-11-06T00:44:10.265Z,100018.97
2022-11-06T00:46:37.949Z,100005.22
2022-11-06T00:49:05.832Z,100009.16
2022-11-06T00:51:36.056Z,99994.84
2022-11-06T00:54:05.457Z,100001.69
2022-11-06T00:56:34.136Z,100002.97
2022-11-06T00:59:04.603Z,100000.28
2022-11-06T01:01:35.490Z,99996.09
2022-11-06T01:04:10.564Z,99985.03
2022-11-06T01:06:40.789Z,99983.59
2022-11-06T01:09:09.138Z,99980.38
2022-11-06T01:12:06.748Z,99980.38
2022-11-06T01:14:28.283Z,99968.19
2022-11-06T01:16:56.427Z,99970.00
2022-11-06T01:19:24.614Z,99960.59
2022-11-06T01:21:53.163Z,99954.56
2022-11-06T01:24:26.407Z,99947.72
2022-11-06T01:29:42.374Z,99946.28
2022-11-06T01:32:10.229Z,99933.88
2022-11-06T01:34:37.770Z,99932.72
2022-11-06T01:37:05.754Z,99930.06
2022-11-06T01:39:33.348Z,99932.72
2022-11-06T01:42:01.125Z,99930.78
2022-11-06T01:44:40.937Z,99920.28
2022-11-06T01:47:21.057Z,99915.09
2022-11-06T01:49:51.215Z,99913.81
2022-11-06T01:52:20.738Z,99916.19
2022-11-06T01:54:53.211Z,99906.78
2022-11-06T01:57:21.718Z,99892.09
2022-11-06T01:59:52.431Z,99896.84
2022-11-06T02:02:20.253Z,99899.59
2022-11-06T02:04:49.440Z,99888.03
2022-11-06T02:07:18.868Z,99888.72
2022-11-06T02:09:46.746Z,99893.91
2022-11-06T02:12:14.215Z,99887.47
2022-11-06T02:15:01.929Z,99878.38
2022-11-06T02:17:50.427Z,99870.28
2022-11-06T02:20:32.618Z,99859.50
2022-11-06T02:23:10.590Z,99852.06
2022-11-06T02:25:48.906Z,99850.81
2022-11-06T02:28:35.102Z,99840.75
2022-11-06T02:31:16.293Z,99840.16
2022-11-06T02:33:57.609Z,99830.69
2022-11-06T02:36:35.440Z,99827.47
2022-11-06T02:39:08.827Z,99824.22
2022-11-06T02:41:42.694Z,99821.81
2022-11-06T02:44:16.627Z,99820.72
2022-11-06T02:46:49.865Z,99819.47
2022-11-06T02:49:44.206Z,99812.16
2022-11-06T02:52:17.354Z,99801.50
2022-11-06T02:54:50.848Z,99809.50
2022-11-06T02:57:21.045Z,99804.31
2022-11-06T03:00:22.242Z,99802.06
2022-11-06T03:02:59.380Z,99799.69
2022-11-06T03:05:29.603Z,99801.53
2022-11-06T03:08:22.754Z,99785.00
2022-11-06T03:11:06.887Z,99779.84
2022-11-06T03:13:49.319Z,99771.97
2022-11-06T03:16:41.718Z,99772.69
2022-11-06T03:19:29.030Z,99767.22
2022-11-06T03:22:27.541Z,99774.06
2022-11-06T03:25:23.508Z,99755.59
2022-11-06T03:28:07.394Z,99743.63
2022-11-06T03:30:39.228Z,99740.19
2022-11-06T03:33:16.768Z,99737.91
2022-11-06T03:35:49.540Z,99732.09
2022-11-06T03:38:41.972Z,99716.75
2022-11-06T03:41:34.902Z,99713.31
2022-11-06T03:44:06.631Z,99712.03
2022-11-06T03:46:38.833Z,99712.03
2022-11-06T03:49:11.006Z,99711.06
2022-11-06T03:51:49.799Z,99696.75
2022-11-06T03:54:22.699Z,99705.28
2022-11-06T03:56:59.395Z,99690.66
2022-11-06T03:59:34.103Z,99688.38
2022-11-06T04:02:03.233Z,99679.91
2022-11-06T04:04:50.402Z,99670.94
2022-11-06T04:07:22.298Z,99667.81
2022-11-06T04:10:13.559Z,99665.97
2022-11-06T04:13:05.753Z,99663.16
2022-11-06T04:15:42.899Z,99661.34
2022-11-06T04:18:15.270Z,99655.84
2022-11-06T04:21:12.429Z,99659.34
2022-11-06T04:24:19.801Z,99655.69
2022-11-06T04:27:25.885Z,99651.19
2022-11-06T04:30:03.031Z,99643.03
2022-11-06T04:32:48.835Z,99634.06
2022-11-06T04:35:31.628Z,99631.41
2022-11-06T04:38:04.365Z,99623.53
2022-11-06T04:40:35.604Z,99622.56
2022-11-06T04:43:09.015Z,99618.91
2022-11-06T04:45:41.457Z,99621.56
2022-11-06T04:48:11.336Z,99618.06
2022-11-06T04:50:48.512Z,99616.22
2022-11-06T04:53:18.776Z,99617.22
2022-11-06T04:55:52.901Z,99616.22
2022-11-06T04:58:20.589Z,99608.53
2022-11-06T05:00:50.815Z,99607.19
2022-11-06T05:03:19.139Z,99592.63
2022-11-06T05:05:46.683Z,99593.09
2022-11-06T05:08:19.651Z,99599.72
2022-11-06T05:10:48.210Z,99591.88
2022-11-06T05:13:16.193Z,99587.50
2022-11-06T05:15:43.861Z,99580.38
2022-11-06T05:18:12.067Z,99574.53
2022-11-06T05:20:39.900Z,99565.84
2022-11-06T05:23:07.382Z,99563.16
2022-11-06T05:25:38.378Z,99559.97
2022-11-06T05:28:08.530Z,99553.13
2022-11-06T05:30:37.334Z,99543.47
2022-11-06T05:33:04.914Z,99539.97
2022-11-06T05:35:32.909Z,99533.78
2022-11-06T05:38:02.066Z,99524.94
2022-11-06T05:40:30.275Z,99527.59
2022-11-06T05:42:57.879Z,99516.28
2022-11-06T05:45:25.486Z,99520.75
2022-11-06T05:47:52.988Z,99515.41
2022-11-06T05:50:20.534Z,99515.59
2022-11-06T05:52:48.067Z,99514.59
2022-11-06T05:55:15.705Z,99513.75
2022-11-06T05:57:43.986Z,99507.44
2022-11-06T06:00:12.699Z,99510.25
2022-11-06T06:02:41.459Z,99504.75
2022-11-06T06:05:09.796Z,99501.25
2022-11-06T06:07:37.304Z,99493.28
2022-11-06T06:10:05.260Z,99486.28
2022-11-06T06:12:33.171Z,99483.44
2022-11-06T06:15:00.933Z,99481.63
2022-11-06T06:17:28.518Z,99476.44
2022-11-06T06:19:56.124Z,99474.78
2022-11-06T06:22:23.676Z,99483.44
2022-11-06T06:24:51.272Z,99478.81
2022-11-06T06:27:18.847Z,99474.31
2022-11-06T06:29:46.387Z,99458.31
2022-11-06T06:32:13.886Z,99460.00
2022-11-06T06:34:41.398Z,99444.03
2022-11-06T06:37:09.121Z,99451.84
2022-11-06T06:39:36.704Z,99445.50
2022-11-06T06:42:04.274Z,99435.69
2022-11-06T06:44:32.187Z,99432.19
2022-11-06T06:46:59.787Z,99435.53
2022-11-06T06:49:29.373Z,99434.72
2022-11-06T06:51:56.913Z,99437.38
2022-11-06T06:54:24.449Z,99433.72
2022-11-06T06:56:52.074Z,99435.53
2022-11-06T06:59:19.582Z,99438.22
2022-11-06T07:01:48.330Z,99432.06
2022-11-06T07:04:16.330Z,99417.72
2022-11-06T07:06:43.908Z,99404.41
2022-11-06T07:09:11.364Z,99408.72
2022-11-06T07:11:39.395Z,99398.06
2022-11-06T07:14:07.231Z,99378.75
2022-11-06T07:16:34.754Z,99389.53
2022-11-06T07:19:02.298Z,99382.56
2022-11-06T07:21:29.792Z,99381.03
2022-11-06T07:23:57.270Z,99383.03
2022-11-06T07:26:24.816Z,99372.53
2022-11-06T07:28:52.306Z,99366.50
2022-11-06T07:31:19.800Z,99362.19
2022-11-06T07:33:47.313Z,99368.50
2022-11-06T07:36:14.849Z,99367.69
2022-11-06T07:38:43.808Z,99362.50
2022-11-06T07:41:14.569Z,99366.00
2022-11-06T07:43:43.111Z,99355.19
2022-11-06T07:46:13.274Z,99358.50
2022-11-06T07:48:40.956Z,99361.88
2022-11-06T07:51:10.735Z,99357.06
2022-11-06T07:53:39.325Z,99356.72
2022-11-06T07:56:08.760Z,99354.91
2022-11-06T07:58:36.293Z,99354.75
2022-11-06T08:01:04.075Z,99358.94
2022-11-06T08:03:32.036Z,99349.78
2022-11-06T08:06:02.763Z,99355.97
2022-11-06T08:08:31.606Z,99341.63
2022-11-06T08:11:06.408Z,99345.81
2022-11-06T08:13:35.142Z,99339.47
2022-11-06T08:16:08.140Z,99335.97
2022-11-06T08:18:36.083Z,99335.81
2022-11-06T08:21:05.071Z,99333.00
2022-11-06T08:23:33.125Z,99336.31
2022-11-06T08:26:03.483Z,99325.66
2022-11-06T08:28:31.066Z,99328.00
2022-11-06T08:30:58.558Z,99329.00
2022-11-06T08:33:26.091Z,99329.84
2022-11-06T08:35:53.672Z,99328.84
2022-11-06T08:38:21.235Z,99333.34
2022-11-06T08:40:53.382Z,99328.31
2022-11-06T08:43:24.281Z,99329.66
2022-11-06T08:45:52.395Z,99330.78
2022-11-06T08:48:19.925Z,99321.31
2022-11-06T08:50:47.550Z,99324.94
2022-11-06T08:53:15.574Z,99314.47
2022-11-06T08:55:43.415Z,99322.47
2022-11-06T08:58:10.926Z,99326.78
2022-11-06T09:00:38.697Z,99331.81
2022-11-06T09:03:10.979Z,99326.97
2022-11-06T09:05:43.617Z,99328.63
2022-11-06T09:08:11.861Z,99336.31
2022-11-06T09:10:44.307Z,99331.50
2022-11-06T09:13:12.669Z,99329.38
2022-11-06T09:15:40.579Z,99327.38
2022-11-06T09:18:08.789Z,99320.88
2022-11-06T09:20:36.409Z,99320.56
2022-11-06T09:23:06.634Z,99314.22
2022-11-06T09:25:34.534Z,99312.75
2022-11-06T09:28:02.236Z,99307.91
2022-11-06T09:30:31.592Z,99307.81
2022-11-06T09:33:02.055Z,99305.31
2022-11-06T09:35:32.677Z,99293.00
2022-11-06T09:38:05.259Z,99286.00
2022-11-06T09:40:39.391Z,99281.00
2022-11-06T09:43:06.898Z,99284.03
2022-11-06T09:45:38.772Z,99283.53
2022-11-06T09:48:09.334Z,99276.84
2022-11-06T09:51:02.587Z,99275.53
2022-11-06T09:53:36.528Z,99273.50
2022-11-06T09:56:06.091Z,99276.00
2022-11-06T09:58:38.520Z,99283.69
2022-11-06T10:01:17.542Z,99288.19
2022-11-06T10:03:54.877Z,99288.34
2022-11-06T10:06:29.823Z,99285.84
2022-11-06T10:09:21.018Z,99291.53
2022-11-06T10:12:11.905Z,99286.53
2022-11-06T10:15:08.799Z,99298.19
2022-11-06T10:18:01.003Z,99288.88
2022-11-06T10:20:39.997Z,99289.38
2022-11-06T10:23:24.248Z,99295.34
2022-11-06T10:25:51.809Z,99289.53
2022-11-06T10:28:42.363Z,99281.69
2022-11-06T10:31:28.724Z,99281.19
2022-11-06T10:34:12.377Z,99283.53
2022-11-06T10:36:49.693Z,99280.19
2022-11-06T10:39:25.053Z,99266.94
2022-11-06T10:42:00.613Z,99261.56
2022-11-06T10:44:36.289Z,99257.28
2022-11-06T10:47:06.540Z,99261.50
2022-11-06T10:49:46.897Z,99267.47
2022-11-06T10:52:41.501Z,99256.94
2022-11-06T10:55:37.034Z,99257.22
2022-11-06T10:58:12.789Z,99244.28
2022-11-06T11:00:40.866Z,99246.19
2022-11-06T11:03:22.581Z,99240.78
2022-11-06T11:05:50.181Z,99250.47
2022-11-06T11:08:42.973Z,99243.31
2022-11-06T11:11:13.510Z,99248.91
2022-11-06T11:13:46.727Z,99259.03
2022-11-06T11:16:26.222Z,99252.19
2022-11-06T11:18:54.427Z,99249.09
2022-11-06T11:21:27.868Z,99246.75
2022-11-06T11:24:01.488Z,99239.34
2022-11-06T11:26:30.975Z,99241.19
2022-11-06T11:29:14.171Z,99237.28
2022-11-06T11:31:47.074Z,99229.16
2022-11-06T11:34:25.143Z,99230.59
2022-11-06T11:37:01.651Z,99222.50
2022-11-06T11:39:33.926Z,99221.69
2022-11-06T11:42:24.259Z,99221.31
2022-11-06T11:45:09.971Z,99216.63
2022-11-06T11:47:39.576Z,99229.22
2022-11-06T11:50:24.554Z,99214.13
2022-11-06T11:53:18.888Z,99217.28
2022-11-06T11:55:49.781Z,99210.19
2022-11-06T11:58:23.773Z,99206.25
2022-11-06T12:00:55.283Z,99203.66
2022-11-06T12:03:27.392Z,99202.72
2022-11-06T12:06:06.525Z,99187.41
2022-11-06T12:08:34.405Z,99187.19
2022-11-06T12:11:06.777Z,99181.16
2022-11-06T12:13:34.461Z,99173.13
2022-11-06T12:16:18.534Z,99180.28
2022-11-06T12:18:54.682Z,99176.63
2022-11-06T12:21:32.857Z,99175.00
2022-11-06T12:24:03.869Z,99167.63
2022-11-06T12:27:00.278Z,99167.84
2022-11-06T12:29:31.389Z,99174.88
2022-11-06T12:32:02.803Z,99166.25
2022-11-06T12:34:53.577Z,99159.28
2022-11-06T12:37:55.582Z,99158.09
2022-11-06T12:40:29.555Z,99153.34
2022-11-06T12:43:22.724Z,99149.88
2022-11-06T12:46:17.762Z,99150.72
2022-11-06T12:49:21.809Z,99143.16
2022-11-06T12:52:04.491Z,99136.59
2022-11-06T12:54:34.963Z,99132.13
2022-11-06T12:57:27.478Z,99131.97
2022-11-06T13:00:12.617Z,99126.91
2022-11-06T13:02:48.995Z,99122.63
2022-11-06T13:05:21.473Z,99117.81
2022-11-06T13:08:12.080Z,99115.28
2022-11-06T13:10:59.529Z,99102.16
2022-11-06T13:13:39.816Z,99101.94
2022-11-06T13:16:13.280Z,99099.44
2022-11-06T13:18:50.364Z,99090.09
2022-11-06T13:21:35.141Z,99087.28
2022-11-06T13:24:12.771Z,99087.88
2022-11-06T13:26:50.800Z,99072.22
2022-11-06T13:29:21.877Z,99086.28
2022-11-06T13:31:59.703Z,99097.09
2022-11-06T13:34:34.675Z,99080.13
2022-11-06T13:37:03.906Z,99085.50
2022-11-06T13:39:42.801Z,99086.69
2022-11-06T13:42:22.385Z,99086.63
2022-11-06T13:44:51.362Z,99071.09
2022-11-06T13:47:28.934Z,99068.19
2022-11-06T13:50:22.567Z,99064.47
2022-11-06T13:52:54.973Z,99063.22
2022-11-06T13:55:28.427Z,99064.25
2022-11-06T13:58:17.856Z,99055.16
2022-11-06T14:01:09.575Z,99051.84
2022-11-06T14:03:46.538Z,99052.25
2022-11-06T14:06:27.426Z,99046.59
2022-11-06T14:08:59.184Z,99041.16
2022-11-06T14:11:39.818Z,99037.53
2022-11-06T14:14:23.395Z,99036.41
2022-11-06T14:17:09.418Z,99033.41
2022-11-06T14:19:37.459Z,99015.84
2022-11-06T14:22:27.018Z,99023.28
2022-11-06T14:25:00.942Z,99024.16
2022-11-06T14:27:28.915Z,99016.72
2022-11-06T14:30:14.752Z,99006.13
2022-11-06T14:32:45.586Z,99004.22
2022-11-06T14:35:28.432Z,99015.16
2022-11-06T14:38:29.744Z,99007.16
2022-11-06T14:40:58.112Z,99002.91
2022-11-06T14:43:30.569Z,99006.63
2022-11-06T14:46:22.639Z,99010.13
2022-11-06T14:49:05.432Z,99002.91
2022-11-06T14:51:32.993Z,98997.25
2022-11-06T14:54:07.322Z,98986.63
2022-11-06T14:56:39.503Z,98993.63
2022-11-06T14:59:16.353Z,98988.22
2022-11-06T15:02:01.024Z,98988.75
2022-11-06T15:04:32.004Z,98994.34
2022-11-06T15:07:09.814Z,98999.84
2022-11-06T15:09:37.386Z,99004.91
2022-11-06T15:12:08.736Z,99013.47
2022-11-06T15:14:36.262Z,99003.72
2022-11-06T15:17:10.729Z,99004.88
2022-11-06T15:19:42.290Z,99001.69
2022-11-06T15:22:38.727Z,98987.78
2022-11-06T15:25:24.707Z,98979.63
2022-11-06T15:28:05.111Z,98979.13
2022-11-06T15:30:42.222Z,98977.25
2022-11-06T15:33:16.254Z,98974.28
2022-11-06T15:35:47.811Z,98972.53
2022-11-06T15:38:24.387Z,98968.94
2022-11-06T15:40:53.897Z,98963.88
2022-11-06T15:43:33.620Z,98955.31
2022-11-06T15:46:17.672Z,98956.47
2022-11-06T15:48:46.291Z,98958.03
2022-11-06T15:51:25.821Z,98951.78
2022-11-06T15:53:54.455Z,98956.03
2022-11-06T15:56:28.440Z,98952.88
2022-11-06T15:59:17.163Z,98955.13
2022-11-06T16:01:49.500Z,98954.47
2022-11-06T16:04:21.754Z,98955.66
2022-11-06T16:06:51.933Z,98954.00
2022-11-06T16:09:26.366Z,98956.59
2022-11-06T16:11:54.714Z,98949.75
2022-11-06T16:14:22.806Z,98961.28
2022-11-06T16:16:51.372Z,98957.97
2022-11-06T16:19:24.702Z,98963.13
2022-11-06T16:22:09.319Z,98956.66
2022-11-06T16:24:57.814Z,98953.28
2022-11-06T16:27:26.731Z,98945.78
2022-11-06T16:29:58.837Z,98934.16
2022-11-06T16:32:29.897Z,98926.50
2022-11-06T16:34:58.630Z,98930.75
2022-11-06T16:37:29.745Z,98923.06
2022-11-06T16:39:59.614Z,98926.59
2022-11-06T16:42:29.956Z,98924.47
2022-11-06T16:45:01.579Z,98927.69
2022-11-06T16:47:29.624Z,98932.75
2022-11-06T16:49:58.324Z,98935.94
2022-11-06T16:52:40.436Z,98930.31
2022-11-06T16:55:16.797Z,98931.50
2022-11-06T16:57:55.682Z,98930.03
2022-11-06T17:00:32.249Z,98922.75
2022-11-06T17:03:04.660Z,98926.13
2022-11-06T17:05:36.750Z,98917.81
2022-11-06T17:08:22.042Z,98916.22
2022-11-06T17:10:59.647Z,98924.63
2022-11-06T17:13:29.071Z,98924.47
2022-11-06T17:16:01.750Z,98924.00
2022-11-06T17:18:34.878Z,98921.22
2022-11-06T17:21:05.665Z,98918.91
2022-11-06T17:23:34.542Z,98916.59
2022-11-06T17:26:11.824Z,98917.81
2022-11-06T17:28:39.632Z,98922.66
2022-11-06T17:31:13.928Z,98923.84
2022-11-06T17:33:41.894Z,98932.69
2022-11-06T17:36:29.774Z,98920.72
2022-11-06T17:38:58.796Z,98922.03
2022-11-06T17:41:32.766Z,98923.06
2022-11-06T17:44:03.074Z,98921.41
2022-11-06T17:46:36.202Z,98923.41
2022-11-06T17:49:05.027Z,98922.94
2022-11-06T17:51:53.319Z,98927.13
2022-11-06T17:54:23.493Z,98931.19
2022-11-06T17:56:51.606Z,98935.69
2022-11-06T17:59:19.628Z,98929.16
2022-11-06T18:01:48.001Z,98928.81
2022-11-06T18:04:16.012Z,98932.78
2022-11-06T18:06:47.902Z,98927.94
2022-11-06T18:09:15.954Z,98921.75
2022-11-06T18:11:43.595Z,98922.13
2022-11-06T18:14:12.189Z,98913.28
2022-11-06T18:16:43.823Z,98918.28
2022-11-06T18:19:16.445Z,98924.09
2022-11-06T18:21:44.203Z,98922.72
2022-11-06T18:24:11.771Z,98927.69
2022-11-06T18:26:40.157Z,98923.66
2022-11-06T18:29:08.525Z,98917.31
2022-11-06T18:31:36.169Z,98929.81
2022-11-06T18:34:04.934Z,98922.16
2022-11-06T18:36:35.146Z,98928.25
2022-11-06T18:39:06.850Z,98928.28
2022-11-06T18:41:35.677Z,98924.81
2022-11-06T18:44:03.509Z,98924.53
2022-11-06T18:46:31.212Z,98920.22
2022-11-06T18:48:59.180Z,98936.88
2022-11-06T18:51:35.754Z,98929.53
2022-11-06T18:54:10.348Z,98928.34
2022-11-06T18:56:38.927Z,98930.16
2022-11-06T18:59:08.352Z,98923.66
2022-11-06T19:01:36.333Z,98919.78
2022-11-06T19:04:05.430Z,98922.13
2022-11-06T19:06:33.601Z,98922.41
2022-11-06T19:09:01.156Z,98927.38
2022-11-06T19:11:28.703Z,98918.03
2022-11-06T19:13:56.307Z,98915.00
2022-11-06T19:16:24.059Z,98918.31
2022-11-06T19:21:30.772Z,98920.00
2022-11-06T19:24:04.528Z,98924.47
2022-11-06T19:26:36.770Z,98929.47
2022-11-06T19:29:08.123Z,98928.47
2022-11-06T19:31:37.639Z,98925.97
2022-11-06T19:34:07.206Z,98925.34
2022-11-06T19:36:35.609Z,98929.81
2022-11-06T19:39:04.062Z,98939.69
2022-11-06T19:41:31.657Z,98934.06
2022-11-06T19:43:59.171Z,98934.91
2022-11-06T19:46:32.385Z,98930.47
2022-11-06T19:49:05.294Z,98937.69
2022-11-06T19:51:34.092Z,98935.09
2022-11-06T19:54:01.903Z,98937.97
2022-11-06T19:56:29.415Z,98937.81
2022-11-06T19:58:56.994Z,98940.38
2022-11-06T20:01:24.778Z,98943.03
2022-11-06T20:03:52.356Z,98946.59
2022-11-06T20:06:20.029Z,98932.44
2022-11-06T20:08:49.256Z,98935.28
2022-11-06T20:11:17.761Z,98942.28
2022-11-06T20:13:45.843Z,98935.16
2022-11-06T20:16:17.102Z,98933.31
2022-11-06T20:18:54.153Z,98929.69
2022-11-06T20:21:22.919Z,98932.38
2022-11-06T20:23:50.442Z,98943.84
2022-11-06T20:26:18.807Z,98936.72
2022-11-06T20:28:47.137Z,98940.88
2022-11-06T20:31:18.636Z,98930.88
2022-11-06T20:33:46.796Z,98925.56
2022-11-06T20:36:22.377Z,98936.06
2022-11-06T20:38:52.025Z,98930.56
2022-11-06T20:41:22.320Z,98928.25
2022-11-06T20:43:51.388Z,98935.88
2022-11-06T20:46:20.201Z,98930.22
2022-11-06T20:48:48.618Z,98935.03
2022-11-06T20:51:19.499Z,98937.19
2022-11-06T20:53:47.243Z,98930.53
2022-11-06T20:56:17.476Z,98940.69
2022-11-06T20:58:45.371Z,98938.53
2022-11-06T21:01:18.086Z,98939.81
2022-11-06T21:03:47.691Z,98937.66
2022-11-06T21:06:15.906Z,98944.31
2022-11-06T21:08:44.400Z,98950.09
2022-11-06T21:11:16.803Z,98946.78
2022-11-06T21:13:46.282Z,98953.25
2022-11-06T21:16:17.080Z,98944.59
2022-11-06T21:18:45.659Z,98951.25
2022-11-06T21:21:20.876Z,98952.56
2022-11-06T21:23:49.375Z,98962.53
2022-11-06T21:26:21.102Z,98961.00
2022-11-06T21:28:48.909Z,98957.69
2022-11-06T21:31:22.292Z,98962.47
2022-11-06T21:33:50.916Z,98963.34
2022-11-06T21:36:29.609Z,98969.63
2022-11-06T21:38:59.983Z,98965.31
2022-11-06T21:41:29.846Z,98968.28
2022-11-06T21:43:57.860Z,98962.16
2022-11-06T21:46:25.623Z,98971.47
2022-11-06T21:48:53.617Z,98970.31
2022-11-06T21:51:26.649Z,98966.34
2022-11-06T21:54:13.751Z,98972.03
2022-11-06T21:56:42.949Z,98973.34
2022-11-06T21:59:13.344Z,98970.19
2022-11-06T22:01:42.004Z,98967.25
2022-11-06T22:04:10.103Z,98978.59
2022-11-06T22:06:41.031Z,98970.78
2022-11-06T22:09:10.685Z,98988.09
2022-11-06T22:11:40.838Z,98975.47
2022-11-06T22:14:12.178Z,98985.09
2022-11-06T22:16:42.299Z,98973.81
2022-11-06T22:19:10.781Z,98985.78
2022-11-06T22:21:39.389Z,98977.47
2022-11-06T22:24:08.203Z,98979.13
2022-11-06T22:26:36.444Z,98987.63
2022-11-06T22:29:08.152Z,98989.44
2022-11-06T22:31:35.859Z,98988.44
2022-11-06T22:34:03.860Z,98984.94
2022-11-06T22:36:32.009Z,98994.44
2022-11-06T22:39:04.041Z,98988.13
2022-11-06T22:41:32.284Z,98987.97
2022-11-06T22:44:00.233Z,98986.97
2022-11-06T22:46:28.896Z,98990.94
2022-11-06T22:48:57.586Z,98988.13
2022-11-06T22:51:28.939Z,98987.97
2022-11-06T22:53:57.407Z,98982.63
2022-11-06T22:56:26.893Z,98985.78
2022-11-06T22:59:02.952Z,98981.84
2022-11-06T23:01:34.977Z,98992.97
2022-11-06T23:04:09.075Z,98998.13
2022-11-06T23:06:36.626Z,98992.16
2022-11-06T23:09:04.199Z,98994.81
2022-11-06T23:11:31.965Z,98993.31
2022-11-06T23:14:06.092Z,98997.97
2022-11-06T23:16:55.400Z,98996.31
2022-11-06T23:19:23.871Z,99004.28
2022-11-06T23:21:52.581Z,99004.97
2022-11-06T23:24:20.401Z,99010.94
2022-11-06T23:26:47.918Z,99004.28
2022-11-06T23:29:15.608Z,99009.13
2022-11-06T23:31:43.114Z,99007.78
2022-11-06T23:34:10.664Z,99009.81
2022-11-06T23:36:38.187Z,99012.81
2022-11-06T23:39:05.846Z,99015.66
2022-11-06T23:41:48.500Z,99011.31
2022-11-06T23:44:51.395Z,99015.28
2022-11-06T23:47:19.059Z,99019.13
2022-11-06T23:49:46.577Z,99010.94
2022-11-06T23:52:14.453Z,99004.78
2022-11-06T23:54:41.950Z,99009.13
2022-11-06T23:57:09.894Z,99011.97
2022-11-06T23:59:37.566Z,99009.47
